createdAt,value
2019-03-21T00:00:15.107Z,10.23
2019-03-21T00:02:15.938Z,10.73
2019-03-21T00:04:17.130Z,10.60
2019-03-21T00:06:17.953Z,10.10
2019-03-21T00:08:18.816Z,9.70
2019-03-21T00:10:19.649Z,9.67
2019-03-21T00:12:20.488Z,9.70
2019-03-21T00:14:21.352Z,10.00
2019-03-21T00:16:22.192Z,10.23
2019-03-21T00:18:23.076Z,10.13
2019-03-21T00:20:23.981Z,10.23
2019-03-21T00:22:24.844Z,9.80
2019-03-21T00:24:25.677Z,10.63
2019-03-21T00:26:26.534Z,9.53
2019-03-21T00:28:27.376Z,9.97
2019-03-21T00:30:28.228Z,9.90
2019-03-21T00:32:29.057Z,9.73
2019-03-21T00:34:30.230Z,10.30
2019-03-21T00:36:31.072Z,10.73
2019-03-21T00:38:31.914Z,10.03
2019-03-21T00:40:32.748Z,9.57
2019-03-21T00:42:33.621Z,9.67
2019-03-21T00:44:34.793Z,9.60
2019-03-21T00:46:35.657Z,9.60
2019-03-21T00:48:36.497Z,9.87
2019-03-21T00:50:37.361Z,10.30
2019-03-21T00:52:38.394Z,10.07
2019-03-21T00:54:39.220Z,10.87
2019-03-21T00:56:40.065Z,10.13
2019-03-21T00:58:40.906Z,9.53
2019-03-21T01:00:41.754Z,9.60
2019-03-21T01:02:42.605Z,10.03
2019-03-21T01:04:43.449Z,9.60
2019-03-21T01:06:44.313Z,10.00
2019-03-21T01:08:45.189Z,9.80
2019-03-21T01:10:46.020Z,9.67
2019-03-21T01:12:46.855Z,9.30
2019-03-21T01:14:48.025Z,8.77
2019-03-21T01:16:48.877Z,9.33
2019-03-21T01:18:49.730Z,9.67
2019-03-21T01:20:50.828Z,9.67
2019-03-21T01:22:51.960Z,9.50
2019-03-21T01:24:52.805Z,9.73
2019-03-21T01:26:53.659Z,9.70
2019-03-21T01:28:54.498Z,9.87
2019-03-21T01:30:55.332Z,9.97
2019-03-21T01:32:56.172Z,10.83
2019-03-21T01:34:57.031Z,11.17
2019-03-21T01:36:57.862Z,10.13
2019-03-21T01:38:58.708Z,10.70
2019-03-21T01:40:59.536Z,10.07
2019-03-21T01:43:00.689Z,9.60
2019-03-21T01:45:01.785Z,9.87
2019-03-21T01:47:02.657Z,9.23
2019-03-21T01:49:03.504Z,10.03
2019-03-21T01:51:04.352Z,9.60
2019-03-21T01:53:05.472Z,9.50
2019-03-21T01:55:06.324Z,9.80
2019-03-21T01:57:07.148Z,9.90
2019-03-21T01:59:08.004Z,9.70
2019-03-21T02:01:09.053Z,9.77
2019-03-21T02:03:09.984Z,10.20
2019-03-21T02:05:10.816Z,10.77
2019-03-21T02:07:11.662Z,11.33
2019-03-21T02:09:12.502Z,11.43
2019-03-21T02:11:13.735Z,10.63
2019-03-21T02:13:14.635Z,11.17
2019-03-21T02:15:15.767Z,10.90
2019-03-21T02:17:16.604Z,10.47
2019-03-21T02:19:17.436Z,9.33
2019-03-21T02:21:18.384Z,10.57
2019-03-21T02:23:19.216Z,10.10
2019-03-21T02:25:20.062Z,9.50
2019-03-21T02:27:20.912Z,8.83
2019-03-21T02:29:21.768Z,9.90
2019-03-21T02:31:22.612Z,10.50
2019-03-21T02:33:23.462Z,9.80
2019-03-21T02:35:24.324Z,10.20
2019-03-21T02:37:25.169Z,9.53
2019-03-21T02:39:26.010Z,10.90
2019-03-21T02:41:26.853Z,10.60
2019-03-21T02:43:27.685Z,10.53
2019-03-21T02:45:28.828Z,10.77
2019-03-21T02:47:29.669Z,10.33
2019-03-21T02:49:30.499Z,10.67
2019-03-21T02:51:31.339Z,10.77
2019-03-21T02:53:32.176Z,11.00
2019-03-21T02:55:33.025Z,11.13
2019-03-21T02:57:33.861Z,9.93
2019-03-21T02:59:34.708Z,11.10
2019-03-21T03:01:35.553Z,10.37
2019-03-21T03:03:36.394Z,9.80
2019-03-21T03:05:37.248Z,9.50
2019-03-21T03:07:38.076Z,8.50
2019-03-21T03:09:39.201Z,8.60
2019-03-21T03:11:40.032Z,8.70
2019-03-21T03:13:40.888Z,8.17
2019-03-21T03:15:41.713Z,9.17
2019-03-21T03:17:42.553Z,8.40
2019-03-21T03:19:43.781Z,8.27
2019-03-21T03:21:44.614Z,8.87
2019-03-21T03:23:45.449Z,9.53
2019-03-21T03:25:46.296Z,9.17
2019-03-21T03:27:47.133Z,9.53
2019-03-21T03:29:48.023Z,9.80
2019-03-21T03:31:48.882Z,10.37
2019-03-21T03:33:49.854Z,10.03
2019-03-21T03:35:50.884Z,9.63
2019-03-21T03:37:51.733Z,10.37
2019-03-21T03:39:52.573Z,10.13
2019-03-21T03:41:53.465Z,10.23
2019-03-21T03:43:54.393Z,9.40
2019-03-21T03:45:55.517Z,9.40
2019-03-21T03:47:56.353Z,9.67
2019-03-21T03:49:57.210Z,9.73
2019-03-21T03:51:58.043Z,10.03
2019-03-21T03:53:58.894Z,10.07
2019-03-21T03:55:59.722Z,10.13
2019-03-21T03:58:00.577Z,10.33
2019-03-21T04:00:01.424Z,10.63
2019-03-21T04:02:02.621Z,10.83
2019-03-21T04:04:03.465Z,10.50
2019-03-21T04:06:04.548Z,10.07
2019-03-21T04:08:05.739Z,10.20
2019-03-21T04:10:06.672Z,9.97
2019-03-21T04:12:07.525Z,10.50
2019-03-21T04:14:08.349Z,9.83
2019-03-21T04:16:09.207Z,10.33
2019-03-21T04:18:10.042Z,10.67
2019-03-21T04:20:10.909Z,10.77
2019-03-21T04:22:11.757Z,11.10
2019-03-21T04:24:12.602Z,9.67
2019-03-21T04:26:13.720Z,9.37
2019-03-21T04:28:15.450Z,9.63
2019-03-21T04:30:16.401Z,8.93
2019-03-21T04:32:17.228Z,9.83
2019-03-21T04:34:18.377Z,9.63
2019-03-21T04:36:19.505Z,9.20
2019-03-21T04:38:20.357Z,9.33
2019-03-21T04:40:21.180Z,10.03
2019-03-21T04:42:22.032Z,9.67
2019-03-21T04:44:22.868Z,10.70
2019-03-21T04:46:23.701Z,10.07
2019-03-21T04:48:24.548Z,10.53
2019-03-21T04:50:25.644Z,10.00
2019-03-21T04:52:26.777Z,10.43
2019-03-21T04:54:27.636Z,10.37
2019-03-21T04:56:28.467Z,10.03
2019-03-21T04:58:29.304Z,10.57
2019-03-21T05:00:30.161Z,9.97
2019-03-21T05:02:31.008Z,10.00
2019-03-21T05:04:31.951Z,10.23
2019-03-21T05:06:32.933Z,10.50
2019-03-21T05:08:33.828Z,10.43
2019-03-21T05:10:34.665Z,10.63
2019-03-21T05:12:35.516Z,11.13
2019-03-21T05:14:36.641Z,10.27
2019-03-21T05:16:37.748Z,10.23
2019-03-21T05:18:38.660Z,9.90
2019-03-21T05:20:39.509Z,10.07
2019-03-21T05:22:40.371Z,10.23
2019-03-21T05:24:41.209Z,10.27
2019-03-21T05:26:42.077Z,10.00
2019-03-21T05:28:42.893Z,10.40
2019-03-21T05:30:43.746Z,10.63
2019-03-21T05:32:44.580Z,10.27
2019-03-21T05:34:45.413Z,9.83
2019-03-21T05:36:46.253Z,10.33
2019-03-21T05:38:47.084Z,11.10
2019-03-21T05:40:47.922Z,10.20
2019-03-21T05:42:48.756Z,10.80
2019-03-21T05:44:49.593Z,10.47
2019-03-21T05:46:50.668Z,10.60
2019-03-21T05:48:51.508Z,10.03
2019-03-21T05:50:52.378Z,10.03
2019-03-21T05:52:53.220Z,10.00
2019-03-21T05:54:54.053Z,10.90
2019-03-21T05:56:54.885Z,10.73
2019-03-21T05:58:55.748Z,10.70
2019-03-21T06:00:56.880Z,10.10
2019-03-21T06:02:57.968Z,10.60
2019-03-21T06:04:59.052Z,10.90
2019-03-21T06:06:59.904Z,10.83
2019-03-21T06:09:00.736Z,10.67
2019-03-21T06:11:01.573Z,11.07
2019-03-21T06:13:02.435Z,10.67
2019-03-21T06:15:03.266Z,12.07
2019-03-21T06:17:04.120Z,11.97
2019-03-21T06:19:04.953Z,11.53
2019-03-21T06:21:05.809Z,12.80
2019-03-21T06:23:06.648Z,13.00
2019-03-21T06:25:07.505Z,11.83
2019-03-21T06:27:14.347Z,11.53
2019-03-21T06:29:11.603Z,11.77
2019-03-21T06:31:12.836Z,10.87
2019-03-21T06:33:13.721Z,11.00
2019-03-21T06:35:14.556Z,11.60
2019-03-21T06:37:15.425Z,10.83
2019-03-21T06:39:16.256Z,11.03
2019-03-21T06:41:17.132Z,11.17
2019-03-21T06:43:18.062Z,11.37
2019-03-21T06:45:18.908Z,12.10
2019-03-21T06:47:19.773Z,10.73
2019-03-21T06:49:20.604Z,11.23
2019-03-21T06:51:21.456Z,11.90
2019-03-21T06:53:22.615Z,11.13
2019-03-21T06:55:23.457Z,11.97
2019-03-21T06:57:24.578Z,12.00
2019-03-21T06:59:25.438Z,12.20
2019-03-21T07:01:26.370Z,12.30
2019-03-21T07:03:27.204Z,11.30
2019-03-21T07:05:28.069Z,10.80
2019-03-21T07:07:28.922Z,11.73
2019-03-21T07:09:29.761Z,11.60
2019-03-21T07:11:30.606Z,10.83
2019-03-21T07:13:31.496Z,12.67
2019-03-21T07:15:32.592Z,11.63
2019-03-21T07:17:33.421Z,10.67
2019-03-21T07:19:34.304Z,11.23
2019-03-21T07:21:35.505Z,11.27
2019-03-21T07:23:36.641Z,11.30
2019-03-21T07:25:37.481Z,10.90
2019-03-21T07:27:38.617Z,11.53
2019-03-21T07:29:39.448Z,10.77
2019-03-21T07:31:40.288Z,11.30
2019-03-21T07:33:41.152Z,9.90
2019-03-21T07:35:42.023Z,9.37
2019-03-21T07:37:43.192Z,9.40
2019-03-21T07:39:44.016Z,10.20
2019-03-21T07:41:44.868Z,9.57
2019-03-21T07:43:45.717Z,8.47
2019-03-21T07:45:46.546Z,8.60
2019-03-21T07:47:47.415Z,8.03
2019-03-21T07:49:48.621Z,8.90
2019-03-21T07:51:49.554Z,8.40
2019-03-21T07:53:50.413Z,8.63
2019-03-21T07:55:51.502Z,8.63
2019-03-21T07:57:52.364Z,8.40
2019-03-21T07:59:53.212Z,9.30
2019-03-21T08:01:54.044Z,8.80
2019-03-21T08:03:55.169Z,9.13
2019-03-21T08:05:56.010Z,9.63
2019-03-21T08:07:56.855Z,8.90
2019-03-21T08:09:58.161Z,9.40
2019-03-21T08:11:59.013Z,8.97
2019-03-21T08:13:59.852Z,9.40
2019-03-21T08:16:00.708Z,9.47
2019-03-21T08:18:01.557Z,9.03
2019-03-21T08:20:02.396Z,9.47
2019-03-21T08:22:03.237Z,9.07
2019-03-21T08:24:04.081Z,8.60
2019-03-21T08:26:04.912Z,8.30
2019-03-21T08:28:05.782Z,8.00
2019-03-21T08:30:06.612Z,8.37
2019-03-21T08:32:07.726Z,8.97
2019-03-21T08:34:08.901Z,8.13
2019-03-21T08:36:09.740Z,8.07
2019-03-21T08:38:10.591Z,10.30
2019-03-21T08:40:11.441Z,8.40
2019-03-21T08:42:12.297Z,8.30
2019-03-21T08:44:13.169Z,7.93
2019-03-21T08:46:14.019Z,7.50
2019-03-21T08:48:14.853Z,7.47
2019-03-21T08:50:15.704Z,7.50
2019-03-21T08:52:16.540Z,7.67
2019-03-21T08:54:17.398Z,6.97
2019-03-21T08:56:18.244Z,7.43
2019-03-21T08:58:19.097Z,7.57
2019-03-21T09:00:20.213Z,7.10
2019-03-21T09:02:21.085Z,7.23
2019-03-21T09:04:21.909Z,7.50
2019-03-21T09:06:22.750Z,8.20
2019-03-21T09:08:23.872Z,7.57
2019-03-21T09:10:24.704Z,6.10
2019-03-21T09:12:25.537Z,5.83
2019-03-21T09:14:26.397Z,6.03
2019-03-21T09:16:27.242Z,4.63
2019-03-21T09:18:28.095Z,4.70
2019-03-21T09:20:28.931Z,4.30
2019-03-21T09:22:29.784Z,4.57
2019-03-21T09:24:30.650Z,4.60
2019-03-21T09:26:31.484Z,4.90
2019-03-21T09:28:32.357Z,4.60
2019-03-21T09:30:33.185Z,4.73
2019-03-21T09:32:34.033Z,4.70
2019-03-21T09:34:34.878Z,4.93
2019-03-21T09:36:35.718Z,4.40
2019-03-21T09:38:36.569Z,4.30
2019-03-21T09:40:37.421Z,4.30
2019-03-21T09:42:38.252Z,5.10
2019-03-21T09:44:39.374Z,4.47
2019-03-21T09:46:50.521Z,4.23
2019-03-21T09:48:42.970Z,4.90
2019-03-21T09:50:43.804Z,5.73
2019-03-21T09:52:44.640Z,4.30
2019-03-21T09:54:45.505Z,4.10
2019-03-21T09:56:46.352Z,4.07
2019-03-21T09:58:47.445Z,3.90
2019-03-21T10:00:48.313Z,3.97
2019-03-21T10:02:49.141Z,4.17
2019-03-21T10:04:49.968Z,4.10
2019-03-21T10:06:50.827Z,4.37
2019-03-21T10:08:51.660Z,4.30
2019-03-21T10:10:52.518Z,4.10
2019-03-21T10:12:55.484Z,3.93
2019-03-21T10:14:56.117Z,4.83
2019-03-21T10:16:57.327Z,3.87
2019-03-21T10:18:58.192Z,4.40
2019-03-21T10:20:59.120Z,4.63
2019-03-21T10:22:59.970Z,3.97
2019-03-21T10:25:00.809Z,3.77
2019-03-21T10:27:01.665Z,4.37
2019-03-21T10:29:02.499Z,4.30
2019-03-21T10:31:03.353Z,3.83
2019-03-21T10:33:04.492Z,3.83
2019-03-21T10:35:05.325Z,4.30
2019-03-21T10:37:06.154Z,4.00
2019-03-21T10:39:06.996Z,3.93
2019-03-21T10:41:07.861Z,4.13
2019-03-21T10:43:10.517Z,4.30
2019-03-21T10:45:11.453Z,4.80
2019-03-21T10:47:12.313Z,4.47
2019-03-21T10:49:13.172Z,4.60
2019-03-21T10:51:14.010Z,4.63
2019-03-21T10:53:14.870Z,4.37
2019-03-21T10:55:15.696Z,4.67
2019-03-21T10:57:16.524Z,4.80
2019-03-21T10:59:17.376Z,5.00
2019-03-21T11:01:18.611Z,4.90
2019-03-21T11:03:19.461Z,4.70
2019-03-21T11:05:23.102Z,4.83
2019-03-21T11:07:23.317Z,4.70
2019-03-21T11:09:24.173Z,5.17
2019-03-21T11:11:25.006Z,4.93
2019-03-21T11:13:25.867Z,5.03
2019-03-21T11:15:26.724Z,5.13
2019-03-21T11:17:27.596Z,5.20
2019-03-21T11:19:28.428Z,5.33
2019-03-21T11:21:29.269Z,5.47
2019-03-21T11:23:30.115Z,5.63
2019-03-21T11:25:30.964Z,5.20
2019-03-21T11:27:31.829Z,5.63
2019-03-21T11:29:32.650Z,5.27
2019-03-21T11:31:33.765Z,4.63
2019-03-21T11:33:34.611Z,5.20
2019-03-21T11:35:35.448Z,5.23
2019-03-21T11:37:36.306Z,5.43
2019-03-21T11:39:37.158Z,4.90
2019-03-21T11:41:38.006Z,5.20
2019-03-21T11:43:38.829Z,5.20
2019-03-21T11:45:39.708Z,5.33
2019-03-21T11:47:42.045Z,5.37
2019-03-21T11:49:43.638Z,5.00
2019-03-21T11:51:44.483Z,5.73
2019-03-21T11:53:45.693Z,5.17
2019-03-21T11:55:46.777Z,5.47
2019-03-21T11:57:47.630Z,5.80
2019-03-21T11:59:51.938Z,4.97
2019-03-21T12:01:51.224Z,5.30
2019-03-21T12:03:52.416Z,5.20
2019-03-21T12:05:53.281Z,5.33
2019-03-21T12:07:54.122Z,5.33
2019-03-21T12:09:54.964Z,5.40
2019-03-21T12:11:55.837Z,5.10
2019-03-21T12:13:56.678Z,5.10
2019-03-21T12:15:57.524Z,4.60
2019-03-21T12:17:58.640Z,4.63
2019-03-21T12:19:59.794Z,4.50
2019-03-21T12:22:00.657Z,4.23
2019-03-21T12:24:01.528Z,4.23
2019-03-21T12:26:02.358Z,4.67
2019-03-21T12:28:03.201Z,4.10
2019-03-21T12:30:04.399Z,4.20
2019-03-21T12:32:05.259Z,4.70
2019-03-21T12:34:06.340Z,4.70
2019-03-21T12:36:07.201Z,4.40
2019-03-21T12:38:08.056Z,4.80
2019-03-21T12:40:08.900Z,4.13
2019-03-21T12:42:09.769Z,4.60
2019-03-21T12:44:10.689Z,4.73
2019-03-21T12:46:11.721Z,4.60
2019-03-21T12:48:12.880Z,4.40
2019-03-21T12:50:13.721Z,4.03
2019-03-21T12:52:14.594Z,4.80
2019-03-21T12:54:15.429Z,4.77
2019-03-21T12:56:16.261Z,4.63
2019-03-21T12:58:17.377Z,4.50
2019-03-21T13:00:18.212Z,4.40
2019-03-21T13:02:19.060Z,4.47
2019-03-21T13:04:19.925Z,4.27
2019-03-21T13:06:21.101Z,5.27
2019-03-21T13:08:33.085Z,4.40
2019-03-21T13:10:25.045Z,4.67
2019-03-21T13:12:25.904Z,7.50
2019-03-21T13:14:26.753Z,4.33
2019-03-21T13:16:27.618Z,4.80
2019-03-21T13:18:28.459Z,5.70
2019-03-21T13:20:29.305Z,4.63
2019-03-21T13:22:30.425Z,4.37
2019-03-21T13:24:31.585Z,4.47
2019-03-21T13:26:32.434Z,4.30
2019-03-21T13:28:33.264Z,4.73
2019-03-21T13:30:34.122Z,4.63
2019-03-21T13:32:34.972Z,4.60
2019-03-21T13:34:35.822Z,4.13
2019-03-21T13:36:36.981Z,4.40
2019-03-21T13:38:37.821Z,4.30
2019-03-21T13:40:38.697Z,4.17
2019-03-21T13:42:39.530Z,4.27
2019-03-21T13:44:40.369Z,4.40
2019-03-21T13:46:41.231Z,4.67
2019-03-21T13:48:42.069Z,4.60
2019-03-21T13:50:42.904Z,4.20
2019-03-21T13:52:43.749Z,4.50
2019-03-21T13:54:44.608Z,5.00
2019-03-21T13:56:45.581Z,5.00
2019-03-21T13:58:46.756Z,4.07
2019-03-21T14:00:48.088Z,4.80
2019-03-21T14:02:48.949Z,4.77
2019-03-21T14:04:49.768Z,5.03
2019-03-21T14:06:50.620Z,4.80
2019-03-21T14:08:51.445Z,5.07
2019-03-21T14:10:52.299Z,4.70
2019-03-21T14:12:53.422Z,4.70
2019-03-21T14:14:54.260Z,4.70
2019-03-21T14:16:55.404Z,4.77
2019-03-21T14:18:56.281Z,4.40
2019-03-21T14:20:57.113Z,4.73
2019-03-21T14:22:57.936Z,4.63
2019-03-21T14:24:58.781Z,4.67
2019-03-21T14:26:59.957Z,4.90
2019-03-21T14:29:11.902Z,4.63
2019-03-21T14:31:03.571Z,4.73
2019-03-21T14:33:04.717Z,4.90
2019-03-21T14:35:05.561Z,5.20
2019-03-21T14:37:06.518Z,4.40
2019-03-21T14:39:07.363Z,5.30
2019-03-21T14:41:08.216Z,4.70
2019-03-21T14:43:09.395Z,4.73
2019-03-21T14:45:10.228Z,4.40
2019-03-21T14:47:11.076Z,4.30
2019-03-21T14:49:11.936Z,4.50
2019-03-21T14:51:12.775Z,4.20
2019-03-21T14:53:13.621Z,4.70
2019-03-21T14:55:14.468Z,4.00
2019-03-21T14:57:15.296Z,4.47
2019-03-21T14:59:16.141Z,4.30
2019-03-21T15:01:17.006Z,4.27
2019-03-21T15:03:17.829Z,4.60
2019-03-21T15:05:18.653Z,4.60
2019-03-21T15:07:19.510Z,5.33
2019-03-21T15:09:20.351Z,4.53
2019-03-21T15:11:21.208Z,4.80
2019-03-21T15:13:22.201Z,4.60
2019-03-21T15:15:23.125Z,4.73
2019-03-21T15:17:23.951Z,4.87
2019-03-21T15:19:24.792Z,4.40
2019-03-21T15:21:25.632Z,4.07
2019-03-21T15:23:26.481Z,4.40
2019-03-21T15:25:27.351Z,4.60
2019-03-21T15:27:28.199Z,5.07
2019-03-21T15:29:29.012Z,5.40
2019-03-21T15:31:29.871Z,5.03
2019-03-21T15:33:30.720Z,4.77
2019-03-21T15:35:31.810Z,4.90
2019-03-21T15:37:32.681Z,5.43
2019-03-21T15:39:33.508Z,5.23
2019-03-21T15:41:34.373Z,4.97
2019-03-21T15:43:35.524Z,4.80
2019-03-21T15:45:36.416Z,4.40
2019-03-21T15:47:37.236Z,5.13
2019-03-21T15:49:38.083Z,4.83
2019-03-21T15:51:38.932Z,4.80
2019-03-21T15:53:39.801Z,5.13
2019-03-21T15:55:40.648Z,4.70
2019-03-21T15:57:41.484Z,4.47
2019-03-21T15:59:42.608Z,4.90
2019-03-21T16:01:43.456Z,4.90
2019-03-21T16:03:44.315Z,5.10
2019-03-21T16:05:45.151Z,5.07
2019-03-21T16:07:45.992Z,5.17
2019-03-21T16:09:46.836Z,4.60
2019-03-21T16:11:47.672Z,4.90
2019-03-21T16:13:48.516Z,4.70
2019-03-21T16:15:49.343Z,5.10
2019-03-21T16:17:50.186Z,5.07
2019-03-21T16:19:51.013Z,4.67
2019-03-21T16:21:52.100Z,5.00
2019-03-21T16:24:04.135Z,5.00
2019-03-21T16:25:55.720Z,4.70
2019-03-21T16:27:56.553Z,5.27
2019-03-21T16:29:57.381Z,4.80
2019-03-21T16:31:58.216Z,5.00
2019-03-21T16:33:59.082Z,4.87
2019-03-21T16:35:59.916Z,4.63
2019-03-21T16:38:00.752Z,4.77
2019-03-21T16:40:01.598Z,5.10
2019-03-21T16:42:02.440Z,5.17
2019-03-21T16:44:03.293Z,5.10
2019-03-21T16:46:04.129Z,5.13
2019-03-21T16:48:04.990Z,5.00
2019-03-21T16:50:05.857Z,5.00
2019-03-21T16:52:06.713Z,5.30
2019-03-21T16:54:16.599Z,4.67
2019-03-21T16:56:10.305Z,5.00
2019-03-21T16:58:11.139Z,5.20
2019-03-21T17:00:11.980Z,5.00
2019-03-21T17:02:13.122Z,5.00
2019-03-21T17:04:13.970Z,5.10
2019-03-21T17:06:14.807Z,4.90
2019-03-21T17:08:15.671Z,5.00
2019-03-21T17:10:18.428Z,4.97
2019-03-21T17:12:19.272Z,5.10
2019-03-21T17:14:20.105Z,5.23
2019-03-21T17:16:21.040Z,4.67
2019-03-21T17:18:21.880Z,4.90
2019-03-21T17:20:22.754Z,4.83
2019-03-21T17:22:23.671Z,5.20
2019-03-21T17:24:29.292Z,4.67
2019-03-21T17:26:27.350Z,5.20
2019-03-21T17:28:28.187Z,5.30
2019-03-21T17:30:29.025Z,4.83
2019-03-21T17:32:29.953Z,4.83
2019-03-21T17:34:30.797Z,5.40
2019-03-21T17:36:31.637Z,5.27
2019-03-21T17:38:32.488Z,5.20
2019-03-21T17:40:33.317Z,4.70
2019-03-21T17:42:34.210Z,4.90
2019-03-21T17:44:35.040Z,4.87
2019-03-21T17:46:35.873Z,4.93
2019-03-21T17:48:36.727Z,6.17
2019-03-21T17:50:37.563Z,6.53
2019-03-21T17:52:38.476Z,7.07
2019-03-21T17:54:41.843Z,7.20
2019-03-21T17:56:42.106Z,6.87
2019-03-21T17:58:42.962Z,7.43
2019-03-21T18:00:44.156Z,7.53
2019-03-21T18:02:44.989Z,7.17
2019-03-21T18:04:45.825Z,8.10
2019-03-21T18:06:46.664Z,7.53
2019-03-21T18:08:47.790Z,9.40
2019-03-21T18:10:48.642Z,9.88
2019-03-21T18:12:49.743Z,8.70
2019-03-21T18:14:50.593Z,8.73
2019-03-21T18:16:51.467Z,8.10
2019-03-21T18:18:52.307Z,7.77
2019-03-21T18:20:53.139Z,7.30
2019-03-21T18:22:53.994Z,6.50
2019-03-21T18:24:54.853Z,5.93
2019-03-21T18:26:55.685Z,6.00
2019-03-21T18:28:56.782Z,6.27
2019-03-21T18:30:58.469Z,8.03
2019-03-21T18:32:59.605Z,8.00
2019-03-21T18:35:00.477Z,8.13
2019-03-21T18:37:01.336Z,8.20
2019-03-21T18:39:02.509Z,8.33
2019-03-21T18:41:03.374Z,8.40
2019-03-21T18:43:04.222Z,8.20
2019-03-21T18:45:05.342Z,8.00
2019-03-21T18:47:06.183Z,8.33
2019-03-21T18:49:07.033Z,8.00
2019-03-21T18:51:07.903Z,8.37
2019-03-21T18:53:08.754Z,8.80
2019-03-21T18:55:09.916Z,9.57
2019-03-21T18:57:10.755Z,9.40
2019-03-21T18:59:11.605Z,9.77
2019-03-21T19:01:12.473Z,9.40
2019-03-21T19:03:13.303Z,9.47
2019-03-21T19:05:14.159Z,9.60
2019-03-21T19:07:14.992Z,10.03
2019-03-21T19:09:15.836Z,9.50
2019-03-21T19:11:16.668Z,9.77
2019-03-21T19:13:17.529Z,10.60
2019-03-21T19:15:18.370Z,9.57
2019-03-21T19:17:19.472Z,10.70
2019-03-21T19:19:20.349Z,10.47
2019-03-21T19:21:21.172Z,9.83
2019-03-21T19:23:22.017Z,10.37
2019-03-21T19:25:23.139Z,9.87
2019-03-21T19:27:24.005Z,10.27
2019-03-21T19:29:24.841Z,10.43
2019-03-21T19:31:25.772Z,10.67
2019-03-21T19:33:26.624Z,10.17
2019-03-21T19:35:27.833Z,10.53
2019-03-21T19:37:28.648Z,10.13
2019-03-21T19:39:29.929Z,9.80
2019-03-21T19:41:30.802Z,9.70
2019-03-21T19:43:31.651Z,9.73
2019-03-21T19:45:32.482Z,9.57
2019-03-21T19:47:33.332Z,10.47
2019-03-21T19:49:34.186Z,9.83
2019-03-21T19:51:35.009Z,9.47
2019-03-21T19:53:35.860Z,9.43
2019-03-21T19:55:36.700Z,10.10
2019-03-21T19:57:37.565Z,9.90
2019-03-21T19:59:40.648Z,10.50
2019-03-21T20:01:41.186Z,10.60
2019-03-21T20:03:42.348Z,10.37
2019-03-21T20:05:43.300Z,10.33
2019-03-21T20:07:44.152Z,10.40
2019-03-21T20:09:45.019Z,10.93
2019-03-21T20:11:45.912Z,11.03
2019-03-21T20:13:46.769Z,11.13
2019-03-21T20:15:47.608Z,10.80
2019-03-21T20:17:48.465Z,10.83
2019-03-21T20:19:49.332Z,10.47
2019-03-21T20:21:50.180Z,10.83
2019-03-21T20:23:51.010Z,11.67
2019-03-21T20:25:51.913Z,10.87
2019-03-21T20:27:53.057Z,11.00
2019-03-21T20:29:53.894Z,11.10
2019-03-21T20:31:54.750Z,10.20
2019-03-21T20:33:55.686Z,10.97
2019-03-21T20:35:56.594Z,11.00
2019-03-21T20:37:57.734Z,11.60
2019-03-21T20:39:58.571Z,10.33
2019-03-21T20:41:59.416Z,10.87
2019-03-21T20:44:00.249Z,9.77
2019-03-21T20:46:01.095Z,11.20
2019-03-21T20:48:01.962Z,11.00
2019-03-21T20:50:02.813Z,10.67
2019-03-21T20:52:03.676Z,11.50
2019-03-21T20:54:04.760Z,11.37
2019-03-21T20:56:05.672Z,10.43
2019-03-21T20:58:06.605Z,9.77
2019-03-21T21:00:07.434Z,9.53
2019-03-21T21:02:08.275Z,9.00
2019-03-21T21:04:09.362Z,9.23
2019-03-21T21:06:10.204Z,9.43
2019-03-21T21:08:11.075Z,9.57
2019-03-21T21:10:12.000Z,9.73
2019-03-21T21:12:12.874Z,10.00
2019-03-21T21:14:13.975Z,10.40
2019-03-21T21:16:14.854Z,9.50
2019-03-21T21:18:15.692Z,9.70
2019-03-21T21:20:16.528Z,11.13
2019-03-21T21:22:17.396Z,11.13
2019-03-21T21:24:18.258Z,11.10
2019-03-21T21:26:19.134Z,11.63
2019-03-21T21:28:19.995Z,11.50
2019-03-21T21:30:20.818Z,11.07
2019-03-21T21:32:21.684Z,11.17
2019-03-21T21:34:22.533Z,11.07
2019-03-21T21:36:23.397Z,11.90
2019-03-21T21:38:24.297Z,11.63
2019-03-21T21:40:25.188Z,12.23
2019-03-21T21:42:26.071Z,11.70
2019-03-21T21:44:26.911Z,12.10
2019-03-21T21:46:27.772Z,11.40
2019-03-21T21:48:28.605Z,12.30
2019-03-21T21:50:29.449Z,12.53
2019-03-21T21:52:41.322Z,12.00
2019-03-21T21:54:33.049Z,12.17
2019-03-21T21:56:33.895Z,11.57
2019-03-21T21:58:34.749Z,12.87
2019-03-21T22:00:35.573Z,13.03
2019-03-21T22:02:36.428Z,12.03
2019-03-21T22:04:37.260Z,12.63
2019-03-21T22:06:38.400Z,12.13
2019-03-21T22:08:39.228Z,13.37
2019-03-21T22:10:40.084Z,13.30
2019-03-21T22:12:40.917Z,12.23
2019-03-21T22:14:42.005Z,13.50
2019-03-21T22:16:42.861Z,13.10
2019-03-21T22:18:43.709Z,13.13
2019-03-21T22:20:44.546Z,12.03
2019-03-21T22:22:45.730Z,13.17
2019-03-21T22:24:46.711Z,12.03
2019-03-21T22:26:47.872Z,12.50
2019-03-21T22:28:48.704Z,12.30
2019-03-21T22:30:49.577Z,12.03
2019-03-21T22:32:50.413Z,11.40
2019-03-21T22:34:51.591Z,11.17
2019-03-21T22:36:52.453Z,13.50
2019-03-21T22:38:53.363Z,13.13
2019-03-21T22:40:54.192Z,13.37
2019-03-21T22:42:55.053Z,12.77
2019-03-21T22:44:55.900Z,12.53
2019-03-21T22:46:56.747Z,12.50
2019-03-21T22:48:57.610Z,12.30
2019-03-21T22:50:58.441Z,12.47
2019-03-21T22:52:59.268Z,11.50
2019-03-21T22:55:00.341Z,10.83
2019-03-21T22:57:01.294Z,11.07
2019-03-21T22:59:02.176Z,10.10
2019-03-21T23:01:03.466Z,10.63
2019-03-21T23:03:04.364Z,10.70
2019-03-21T23:05:05.429Z,11.13
2019-03-21T23:07:06.571Z,10.57
2019-03-21T23:09:07.453Z,12.13
2019-03-21T23:11:08.705Z,11.73
2019-03-21T23:13:09.733Z,13.03
2019-03-21T23:15:10.660Z,14.30
2019-03-21T23:17:11.642Z,13.97
2019-03-21T23:19:12.478Z,12.93
2019-03-21T23:21:13.313Z,12.27
2019-03-21T23:23:14.153Z,11.73
2019-03-21T23:25:16.449Z,11.63
2019-03-21T23:27:17.733Z,11.63
2019-03-21T23:29:18.594Z,10.90
2019-03-21T23:31:19.418Z,12.17
2019-03-21T23:33:20.268Z,12.17
2019-03-21T23:35:21.129Z,12.97
2019-03-21T23:37:21.968Z,13.77
2019-03-21T23:39:23.081Z,11.77
2019-03-21T23:41:24.192Z,11.13
2019-03-21T23:43:25.034Z,10.63
2019-03-21T23:45:25.908Z,10.17
2019-03-21T23:47:27.092Z,9.93
2019-03-21T23:49:27.925Z,10.73
2019-03-21T23:51:28.786Z,10.97
2019-03-21T23:53:29.609Z,10.70
2019-03-21T23:55:30.492Z,10.97
2019-03-21T23:57:31.339Z,10.83
2019-03-21T23:59:32.191Z,11.03
